메인 페이지
METAR-TAF:

METAR-TAF

공항 :

아타튀르크 국제공항

이스탄불 이스탄불, 터키

위도: 40-58N, 경도: 028-49E, 고도: 48m

현재 날씨관측

예보는 27분 전, 14:20시(UTC)에 발표되었습니다.
북북동12kt북북서풍과 풍을 오가는
온도 24°C
습도 65%
기압 1010 hPa
시정 10km 이상
고도 2500ft 상공 구름 보통
고도 8000ft 상공 구름 많음

METAR: LTBA 251420Z 02012KT 330V090 9999 SCT025 BKN080 24/17 Q1010 NOSIG RMK RWY17L 03012KT 360V070 RWY05 03016KT RWY23 04013KT 020V080

시각: 17:47 (14:47 UTC)

예보

예보는 4 시간 7분 전, 10:40시(UTC)에 발표되었습니다.
예보 대상 시간: 25일 12시부터 26일 18시까지 (UTC)
북북동9kt
시정 10km 이상
고도 3000ft 상공 구름 보통
고도 8000ft 상공 구름 많음
일시적
25일 12시부터 25일 15시까지 (UTC)
북동15kt, 순간 최대 풍속 25kt
확률 40% :
일시적
25일 18시부터 25일 21시까지 (UTC)
고도 1600ft 상공 구름 많음
고도 7000ft 상공 구름 많음
확률 40%
26일 03시부터 26일 06시까지 (UTC)
고도 1200ft 상공 구름 조금
고도 2500ft 상공 구름 많음
약한소나기
확률 30% :
일시적
26일 06시부터 26일 09시까지 (UTC)
고도 1500ft 상공 구름 조금, 적란운.
고도 2500ft 상공 구름 많음
뇌우, 약한비

TAF: LTBA 251040Z 2512/2618 03009KT 9999 SCT030 BKN080 TEMPO 2512/2515 04015G25KT PROB40 TEMPO 2518/2521 BKN016 BKN070 PROB40 2603/2606 -SHRA FEW012 BKN025 PROB30 TEMPO 2606/2609 -TSRA FEW015CB BKN025

4,000개 이상의 공항 관측 자료 및 예보 (METAR 및 TAF 보고).

지도상에서 검색 가능한 기상관측소가 노란 점과 빨간 점으로 표시되어 있습니다.

기상관측소 명을 보려면 표시 위로 마우스를 이동하세요.

날씨 관측과 예보를 보려면 클릭하세요.

지도 변경 : 확대하려면 엑스 표시가 있는 녹색 버튼, 축소하려면 빼기 표시가 있는 녹색 버튼, 다음 페이지의 지도를 보려면 녹색 화살표를 클릭하세요.


METAR-TAF: